TimeEST,TemperatureF,Dew PointF,Humidity,Sea Level PressureIn,VisibilityMPH,Wind Direction,Wind SpeedMPH,Gust SpeedMPH,PrecipitationIn,Events,Conditions,WindDirDegrees,DateUTC
12:52 AM,30.9,18.0,59,30.74,10.0,NNE,6.9,-,N/A,,Clear,30,2013-11-30 05:52:00
1:52 AM,30.9,18.0,59,30.74,10.0,NNE,5.8,-,N/A,,Clear,30,2013-11-30 06:52:00
2:52 AM,30.0,19.0,64,30.74,10.0,NE,8.1,-,N/A,,Clear,40,2013-11-30 07:52:00
3:52 AM,28.9,18.0,64,30.73,10.0,NNE,5.8,-,N/A,,Clear,20,2013-11-30 08:52:00
4:52 AM,28.9,18.0,64,30.72,10.0,NE,8.1,-,N/A,,Clear,40,2013-11-30 09:52:00
5:52 AM,28.9,18.0,64,30.73,10.0,NE,5.8,-,N/A,,Clear,40,2013-11-30 10:52:00
6:52 AM,28.9,18.0,64,30.73,10.0,NE,8.1,-,N/A,,Partly Cloudy,40,2013-11-30 11:52:00
7:52 AM,30.0,19.0,64,30.73,10.0,NE,5.8,-,N/A,,Mostly Cloudy,40,2013-11-30 12:52:00
8:52 AM,30.9,19.9,64,30.73,10.0,ENE,6.9,-,N/A,,Mostly Cloudy,60,2013-11-30 13:52:00
9:52 AM,34.0,19.0,54,30.73,10.0,NE,5.8,-,N/A,,Overcast,50,2013-11-30 14:52:00
10:52 AM,35.1,19.0,52,30.70,10.0,NE,5.8,-,N/A,,Overcast,40,2013-11-30 15:52:00
11:52 AM,37.0,18.0,46,30.66,10.0,NNE,4.6,-,N/A,,Mostly Cloudy,30,2013-11-30 16:52:00
12:52 PM,37.9,18.0,45,30.63,10.0,Calm,Calm,-,N/A,,Mostly Cloudy,0,2013-11-30 17:52:00
1:52 PM,39.0,18.0,43,30.60,10.0,Calm,Calm,-,N/A,,Overcast,0,2013-11-30 18:52:00
2:52 PM,39.0,19.0,45,30.57,10.0,Calm,Calm,-,N/A,,Overcast,0,2013-11-30 19:52:00
3:52 PM,39.0,19.0,45,30.54,10.0,Calm,Calm,-,N/A,,Overcast,0,2013-11-30 20:52:00
4:52 PM,37.9,19.0,47,30.53,10.0,Calm,Calm,-,N/A,,Mostly Cloudy,0,2013-11-30 21:52:00
5:04 PM,37.4,19.4,48,30.52,10.0,Calm,Calm,-,N/A,,Overcast,0,2013-11-30 22:04:00
5:52 PM,37.9,21.9,53,30.51,10.0,Calm,Calm,-,N/A,,Overcast,0,2013-11-30 22:52:00
6:52 PM,37.9,23.0,55,30.50,10.0,Calm,Calm,-,N/A,,Overcast,0,2013-11-30 23:52:00
7:52 PM,37.9,21.9,53,30.48,10.0,Calm,Calm,-,N/A,,Mostly Cloudy,0,2013-12-01 00:52:00
8:52 PM,37.0,21.9,54,30.46,10.0,Calm,Calm,-,N/A,,Overcast,0,2013-12-01 01:52:00
9:52 PM,37.0,23.0,57,30.45,10.0,Calm,Calm,-,N/A,,Overcast,0,2013-12-01 02:52:00
10:52 PM,37.0,24.1,59,30.43,10.0,Calm,Calm,-,N/A,,Overcast,0,2013-12-01 03:52:00
11:11 PM,37.4,24.8,60,30.42,10.0,Calm,Calm,-,N/A,,Overcast,0,2013-12-01 04:11:00
11:52 PM,36.0,24.1,62,30.40,10.0,Calm,Calm,-,N/A,,Mostly Cloudy,0,2013-12-01 04:52:00